createdAt,value
2023-06-11T00:00:55.397Z,17.51
2023-06-11T00:01:52.755Z,17.43
2023-06-11T00:02:55.395Z,17.46
2023-06-11T00:03:53.850Z,17.44
2023-06-11T00:04:51.090Z,17.39
2023-06-11T00:05:48.716Z,17.24
2023-06-11T00:06:46.585Z,17.33
2023-06-11T00:07:43.517Z,17.41
2023-06-11T00:08:40.552Z,17.47
2023-06-11T00:09:37.583Z,17.43
2023-06-11T00:10:34.541Z,17.37
2023-06-11T00:11:31.470Z,17.32
2023-06-11T00:12:28.732Z,17.37
2023-06-11T00:13:25.990Z,17.40
2023-06-11T00:14:24.955Z,17.42
2023-06-11T00:15:22.058Z,17.36
2023-06-11T00:16:19.034Z,17.20
2023-06-11T00:17:16.056Z,17.14
2023-06-11T00:18:13.441Z,17.05
2023-06-11T00:19:10.653Z,17.10
2023-06-11T00:20:11.240Z,17.18
2023-06-11T00:21:09.223Z,17.24
2023-06-11T00:22:06.465Z,17.31
2023-06-11T00:23:03.491Z,17.33
2023-06-11T00:24:00.709Z,17.37
2023-06-11T00:24:57.678Z,17.24
2023-06-11T00:25:54.604Z,17.26
2023-06-11T00:26:51.658Z,17.30
2023-06-11T00:27:48.619Z,17.28
2023-06-11T00:28:45.601Z,17.27
2023-06-11T00:29:42.563Z,17.29
2023-06-11T00:30:39.478Z,17.18
2023-06-11T00:31:36.549Z,17.05
2023-06-11T00:32:35.084Z,17.03
2023-06-11T00:33:32.079Z,16.99
2023-06-11T00:34:29.066Z,17.00
2023-06-11T00:35:26.029Z,17.07
2023-06-11T00:36:22.931Z,17.06
2023-06-11T00:37:19.840Z,16.98
2023-06-11T00:38:20.584Z,16.88
2023-06-11T00:39:17.967Z,16.93
2023-06-11T00:40:14.882Z,17.03
2023-06-11T00:41:11.780Z,16.99
2023-06-11T00:42:11.529Z,16.86
2023-06-11T00:43:08.846Z,16.79
2023-06-11T00:44:06.734Z,16.86
2023-06-11T00:45:07.577Z,16.90
2023-06-11T00:46:12.024Z,16.97
2023-06-11T00:47:10.168Z,16.93
2023-06-11T00:48:07.427Z,17.02
2023-06-11T00:49:04.437Z,16.98
2023-06-11T00:50:03.629Z,16.97
2023-06-11T00:51:00.897Z,16.94
2023-06-11T00:51:58.905Z,16.95
2023-06-11T00:52:56.175Z,16.97
2023-06-11T00:53:54.774Z,16.94
2023-06-11T00:54:54.392Z,16.84
2023-06-11T00:55:51.299Z,16.76
2023-06-11T00:56:48.198Z,16.76
2023-06-11T00:57:45.096Z,16.78
2023-06-11T00:58:42.055Z,16.71
2023-06-11T00:59:40.006Z,16.65
2023-06-11T01:00:37.491Z,16.72
2023-06-11T01:01:43.070Z,16.66
2023-06-11T01:02:46.423Z,16.63
2023-06-11T01:03:44.498Z,16.74
2023-06-11T01:04:43.264Z,16.74
2023-06-11T01:05:45.686Z,16.83
2023-06-11T01:06:47.553Z,16.84
2023-06-11T01:07:51.962Z,16.80
2023-06-11T01:08:54.473Z,16.82
2023-06-11T01:09:52.140Z,16.80
2023-06-11T01:10:50.747Z,16.77
2023-06-11T01:11:50.393Z,16.81
2023-06-11T01:12:47.425Z,16.73
2023-06-11T01:13:44.564Z,16.78
2023-06-11T01:14:41.480Z,16.82
2023-06-11T01:15:38.419Z,16.85
2023-06-11T01:16:46.411Z,16.72
2023-06-11T01:17:56.250Z,16.72
2023-06-11T01:19:05.028Z,16.77
2023-06-11T01:20:38.882Z,16.83
2023-06-11T01:21:46.523Z,16.86
2023-06-11T01:22:55.836Z,16.84
2023-06-11T01:23:57.458Z,16.84
2023-06-11T01:25:31.820Z,16.85
2023-06-11T01:27:19.136Z,16.79
2023-06-11T01:28:21.111Z,16.69
2023-06-11T01:29:21.783Z,16.63
2023-06-11T01:30:18.673Z,16.72
2023-06-11T01:31:16.996Z,16.77
2023-06-11T01:32:16.004Z,16.79
2023-06-11T01:33:15.272Z,16.80
2023-06-11T01:34:14.662Z,16.78
2023-06-11T01:35:11.847Z,16.84
2023-06-11T01:36:09.239Z,16.83
2023-06-11T01:37:06.655Z,16.84
2023-06-11T01:38:03.801Z,16.82
2023-06-11T01:39:02.854Z,16.80
2023-06-11T01:40:00.507Z,16.75
2023-06-11T01:41:00.246Z,16.78
2023-06-11T01:41:57.722Z,16.72
2023-06-11T01:42:56.133Z,16.71
2023-06-11T01:43:53.045Z,16.74
2023-06-11T01:44:49.975Z,16.80
2023-06-11T01:45:46.896Z,16.79
2023-06-11T01:46:43.902Z,16.79
2023-06-11T01:47:41.847Z,16.73
2023-06-11T01:48:38.835Z,16.70
2023-06-11T01:49:35.922Z,16.73
2023-06-11T01:50:34.038Z,16.71
2023-06-11T01:51:30.974Z,16.72
2023-06-11T01:52:27.921Z,16.69
2023-06-11T01:53:24.982Z,16.68
2023-06-11T01:54:21.885Z,16.67
2023-06-11T01:55:18.840Z,16.64
2023-06-11T01:56:15.748Z,16.61
2023-06-11T01:57:13.368Z,16.59
2023-06-11T01:58:10.430Z,16.58
2023-06-11T01:59:07.885Z,16.57
2023-06-11T02:00:09.346Z,16.56
2023-06-11T02:01:06.324Z,16.54
2023-06-11T02:02:03.392Z,16.47
2023-06-11T02:03:03.359Z,16.45
2023-06-11T02:04:00.688Z,16.42
2023-06-11T02:04:57.745Z,16.46
2023-06-11T02:05:54.764Z,16.45
2023-06-11T02:06:51.957Z,16.45
2023-06-11T02:07:48.881Z,16.45
2023-06-11T02:08:45.824Z,16.44
2023-06-11T02:09:42.840Z,16.44
2023-06-11T02:10:39.763Z,16.48
2023-06-11T02:11:36.671Z,16.48
2023-06-11T02:12:33.638Z,16.47
2023-06-11T02:13:32.081Z,16.35
2023-06-11T02:14:29.071Z,16.35
2023-06-11T02:15:27.042Z,16.37
2023-06-11T02:16:23.987Z,16.37
2023-06-11T02:17:21.357Z,16.40
2023-06-11T02:18:18.282Z,16.40
2023-06-11T02:19:15.192Z,16.39
2023-06-11T02:20:13.400Z,16.36
2023-06-11T02:21:10.366Z,16.38
2023-06-11T02:22:07.328Z,16.40
2023-06-11T02:23:05.123Z,16.37
2023-06-11T02:24:02.165Z,16.39
2023-06-11T02:24:59.041Z,16.42
2023-06-11T02:25:55.993Z,16.42
2023-06-11T02:26:53.026Z,16.43
2023-06-11T02:27:53.005Z,16.45
2023-06-11T02:28:49.956Z,16.43
2023-06-11T02:29:46.849Z,16.38
2023-06-11T02:30:43.758Z,16.40
2023-06-11T02:31:40.883Z,16.41
2023-06-11T02:32:37.918Z,16.42
2023-06-11T02:33:34.948Z,16.41
2023-06-11T02:34:31.936Z,16.37
2023-06-11T02:35:28.855Z,16.42
2023-06-11T02:36:25.808Z,16.46
2023-06-11T02:37:22.734Z,16.46
2023-06-11T02:38:19.643Z,16.46
2023-06-11T02:39:16.693Z,16.43
2023-06-11T02:40:13.809Z,16.46
2023-06-11T02:41:10.833Z,16.41
2023-06-11T02:42:07.953Z,16.44
2023-06-11T02:43:04.893Z,16.46
2023-06-11T02:44:01.890Z,16.47
2023-06-11T02:44:58.904Z,16.51
2023-06-11T02:45:55.886Z,16.49
2023-06-11T02:46:52.974Z,16.42
2023-06-11T02:47:49.960Z,16.24
2023-06-11T02:48:46.955Z,16.33
2023-06-11T02:49:43.856Z,16.40
2023-06-11T02:50:40.923Z,16.42
2023-06-11T02:51:37.944Z,16.45
2023-06-11T02:52:34.959Z,16.43
2023-06-11T02:53:31.887Z,16.45
2023-06-11T02:54:28.856Z,16.47
2023-06-11T02:55:26.744Z,16.46
2023-06-11T02:56:23.755Z,16.47
2023-06-11T02:57:20.689Z,16.49
2023-06-11T02:58:17.653Z,16.45
2023-06-11T02:59:14.678Z,16.50
2023-06-11T03:00:12.365Z,16.52
2023-06-11T03:01:09.368Z,16.47
2023-06-11T03:02:06.481Z,16.51
2023-06-11T03:03:03.537Z,16.51
2023-06-11T03:04:00.746Z,16.43
2023-06-11T03:04:57.709Z,16.38
2023-06-11T03:05:54.647Z,16.45
2023-06-11T03:06:51.585Z,16.50
2023-06-11T03:07:48.517Z,16.53
2023-06-11T03:08:45.489Z,16.47
2023-06-11T03:09:42.454Z,16.50
2023-06-11T03:10:39.432Z,16.54
2023-06-11T03:11:36.898Z,16.57
2023-06-11T03:12:33.962Z,16.60
2023-06-11T03:13:30.987Z,16.60
2023-06-11T03:14:27.966Z,16.62
2023-06-11T03:15:24.872Z,16.59
2023-06-11T03:16:21.848Z,16.60
2023-06-11T03:17:18.927Z,16.64
2023-06-11T03:18:16.491Z,16.63
2023-06-11T03:19:13.441Z,16.64
2023-06-11T03:20:10.907Z,16.61
2023-06-11T03:21:07.855Z,16.59
2023-06-11T03:22:05.030Z,16.62
2023-06-11T03:23:03.483Z,16.61
2023-06-11T03:24:00.535Z,16.67
2023-06-11T03:24:57.469Z,16.71
2023-06-11T03:25:54.416Z,16.72
2023-06-11T03:26:51.340Z,16.68
2023-06-11T03:27:48.395Z,16.68
2023-06-11T03:28:45.409Z,16.70
2023-06-11T03:29:42.338Z,16.73
2023-06-11T03:30:39.264Z,16.76
2023-06-11T03:31:36.836Z,16.78
2023-06-11T03:32:33.876Z,16.83
2023-06-11T03:33:30.746Z,16.86
2023-06-11T03:34:27.664Z,16.86
2023-06-11T03:35:24.586Z,16.86
2023-06-11T03:36:21.560Z,16.88
2023-06-11T03:37:19.264Z,16.75
2023-06-11T03:38:16.216Z,16.67
2023-06-11T03:39:13.185Z,16.60
2023-06-11T03:40:10.435Z,16.66
2023-06-11T03:41:08.610Z,16.75
2023-06-11T03:42:05.824Z,16.81
2023-06-11T03:43:02.756Z,16.85
2023-06-11T03:43:59.863Z,16.90
2023-06-11T03:44:57.134Z,16.95
2023-06-11T03:45:54.099Z,16.96
2023-06-11T03:46:51.293Z,16.95
2023-06-11T03:47:53.432Z,16.99
2023-06-11T03:48:50.602Z,17.03
2023-06-11T03:49:47.574Z,17.06
2023-06-11T03:50:44.534Z,17.05
2023-06-11T03:51:41.546Z,17.09
2023-06-11T03:52:38.590Z,17.13
2023-06-11T03:53:35.761Z,17.15
2023-06-11T03:54:32.635Z,17.16
2023-06-11T03:55:31.096Z,17.18
2023-06-11T03:56:28.153Z,17.22
2023-06-11T03:57:25.126Z,17.24
2023-06-11T03:58:22.063Z,17.28
2023-06-11T03:59:18.974Z,17.29
2023-06-11T04:00:16.560Z,17.32
2023-06-11T04:01:13.676Z,17.29
2023-06-11T04:02:10.662Z,17.33
2023-06-11T04:03:07.685Z,17.38
2023-06-11T04:04:04.874Z,17.40
2023-06-11T04:05:02.513Z,17.43
2023-06-11T04:05:59.524Z,17.39
2023-06-11T04:06:56.506Z,17.43
2023-06-11T04:07:53.453Z,17.43
2023-06-11T04:08:50.366Z,17.50
2023-06-11T04:09:47.292Z,17.50
2023-06-11T04:10:44.730Z,17.53
2023-06-11T04:11:41.705Z,17.56
2023-06-11T04:12:38.615Z,17.57
2023-06-11T04:13:35.712Z,17.57
2023-06-11T04:14:32.723Z,17.62
2023-06-11T04:15:29.891Z,17.65
2023-06-11T04:16:26.836Z,17.68
2023-06-11T04:17:23.903Z,17.74
2023-06-11T04:18:20.957Z,17.75
2023-06-11T04:19:19.513Z,17.84
2023-06-11T04:20:16.639Z,17.88
2023-06-11T04:21:13.545Z,17.91
2023-06-11T04:22:10.549Z,17.90
2023-06-11T04:23:07.957Z,17.93
2023-06-11T04:24:08.344Z,17.93
2023-06-11T04:25:08.358Z,18.00
2023-06-11T04:26:05.467Z,18.04
2023-06-11T04:27:02.413Z,18.06
2023-06-11T04:27:59.532Z,18.10
2023-06-11T04:28:57.795Z,18.10
2023-06-11T04:29:57.553Z,18.15
2023-06-11T04:30:58.827Z,18.14
2023-06-11T04:31:56.354Z,18.14
2023-06-11T04:32:56.555Z,18.21
2023-06-11T04:33:57.284Z,18.27
2023-06-11T04:34:58.296Z,18.29
2023-06-11T04:35:57.417Z,18.36
2023-06-11T04:36:54.633Z,18.39
2023-06-11T04:37:51.694Z,18.36
2023-06-11T04:38:50.018Z,18.39
2023-06-11T04:39:47.225Z,18.44
2023-06-11T04:40:44.175Z,18.42
2023-06-11T04:41:41.165Z,18.37
2023-06-11T04:42:41.792Z,18.47
2023-06-11T04:43:38.718Z,18.48
2023-06-11T04:44:37.781Z,18.52
2023-06-11T04:45:35.355Z,18.56
2023-06-11T04:46:35.958Z,18.54
2023-06-11T04:47:34.806Z,18.47
2023-06-11T04:48:36.116Z,18.53
2023-06-11T04:49:33.863Z,18.53
2023-06-11T04:50:32.992Z,18.55
2023-06-11T04:51:34.318Z,18.62
2023-06-11T04:52:44.190Z,18.63
2023-06-11T04:53:41.174Z,18.58
2023-06-11T04:54:38.413Z,18.69
2023-06-11T04:55:39.939Z,18.72
2023-06-11T04:56:37.159Z,18.71
2023-06-11T04:57:34.090Z,18.67
2023-06-11T04:58:31.828Z,18.73
2023-06-11T04:59:28.794Z,18.75
2023-06-11T05:00:25.766Z,18.73
2023-06-11T05:01:22.761Z,18.73
2023-06-11T05:02:19.773Z,18.82
2023-06-11T05:03:18.244Z,18.82
2023-06-11T05:04:15.905Z,18.85
2023-06-11T05:05:14.486Z,18.85
2023-06-11T05:06:14.855Z,18.80
2023-06-11T05:07:12.138Z,18.87
2023-06-11T05:08:09.051Z,18.86
2023-06-11T05:09:05.978Z,18.94
2023-06-11T05:10:02.966Z,19.03
2023-06-11T05:10:59.916Z,19.05
2023-06-11T05:11:56.820Z,19.12
2023-06-11T05:12:53.768Z,19.06
2023-06-11T05:13:50.690Z,19.12
2023-06-11T05:14:47.621Z,19.15
2023-06-11T05:15:44.576Z,19.16
2023-06-11T05:16:42.274Z,19.16
2023-06-11T05:17:39.569Z,19.05
2023-06-11T05:18:37.061Z,19.19
2023-06-11T05:19:34.100Z,19.14
2023-06-11T05:20:31.346Z,19.08
2023-06-11T05:21:28.368Z,19.11
2023-06-11T05:22:25.356Z,19.14
2023-06-11T05:23:30.273Z,19.29
2023-06-11T05:24:30.499Z,19.36
2023-06-11T05:25:30.627Z,19.30
2023-06-11T05:26:32.998Z,19.37
2023-06-11T05:27:30.857Z,19.42
2023-06-11T05:28:28.029Z,19.41
2023-06-11T05:29:25.641Z,19.51
2023-06-11T05:30:26.924Z,19.62
2023-06-11T05:31:25.306Z,19.70
2023-06-11T05:32:23.104Z,19.76
2023-06-11T05:33:20.162Z,19.82
2023-06-11T05:34:17.101Z,19.79
2023-06-11T05:35:14.414Z,19.91
2023-06-11T05:36:11.947Z,19.92
2023-06-11T05:37:08.896Z,19.89
2023-06-11T05:38:07.593Z,20.10
2023-06-11T05:39:04.787Z,20.09
2023-06-11T05:40:01.663Z,20.27
2023-06-11T05:40:58.673Z,20.37
2023-06-11T05:41:55.721Z,20.40
2023-06-11T05:42:52.708Z,20.50
2023-06-11T05:43:49.716Z,20.49
2023-06-11T05:44:46.645Z,20.52
2023-06-11T05:45:50.678Z,20.53
2023-06-11T05:46:47.743Z,20.64
2023-06-11T05:47:44.926Z,20.58
2023-06-11T05:48:42.474Z,20.62
2023-06-11T05:49:39.507Z,20.89
2023-06-11T05:50:36.598Z,21.02
2023-06-11T05:51:33.962Z,21.26
2023-06-11T05:52:31.395Z,20.95
2023-06-11T05:53:28.348Z,21.07
2023-06-11T05:54:25.276Z,21.28
2023-06-11T05:55:22.455Z,21.17
2023-06-11T05:56:19.378Z,21.13
2023-06-11T05:57:20.534Z,21.11
2023-06-11T05:58:17.432Z,21.15
2023-06-11T05:59:14.478Z,21.22
2023-06-11T06:00:13.908Z,21.18
2023-06-11T06:01:13.620Z,21.20
2023-06-11T06:02:10.671Z,21.31
2023-06-11T06:03:08.132Z,21.26
2023-06-11T06:04:05.657Z,21.50
2023-06-11T06:05:02.840Z,21.35
2023-06-11T06:06:01.091Z,21.35
2023-06-11T06:06:58.053Z,21.33
2023-06-11T06:07:55.022Z,21.54
2023-06-11T06:08:52.036Z,21.58
2023-06-11T06:09:48.946Z,21.61
2023-06-11T06:10:45.892Z,21.66
2023-06-11T06:11:42.922Z,21.74
2023-06-11T06:12:39.834Z,21.87
2023-06-11T06:13:36.725Z,21.85
2023-06-11T06:14:33.894Z,21.91
2023-06-11T06:15:30.933Z,21.80
2023-06-11T06:16:29.056Z,21.80
2023-06-11T06:17:26.260Z,21.76
2023-06-11T06:18:24.159Z,21.84
2023-06-11T06:19:21.564Z,21.91
2023-06-11T06:20:18.508Z,22.18
2023-06-11T06:21:15.600Z,22.29
2023-06-11T06:22:12.649Z,22.21
2023-06-11T06:23:10.708Z,22.30
2023-06-11T06:24:07.938Z,22.31
2023-06-11T06:25:05.364Z,22.37
2023-06-11T06:26:05.264Z,22.39
2023-06-11T06:27:02.197Z,22.29
2023-06-11T06:27:59.155Z,22.21
2023-06-11T06:28:56.636Z,22.19
2023-06-11T06:29:53.787Z,22.15
2023-06-11T06:30:51.404Z,22.03
2023-06-11T06:31:48.339Z,22.00
2023-06-11T06:32:45.428Z,21.99
2023-06-11T06:33:42.498Z,21.97
2023-06-11T06:34:39.460Z,22.02
2023-06-11T06:35:36.650Z,22.25
2023-06-11T06:36:33.817Z,22.23
2023-06-11T06:37:31.202Z,22.33
2023-06-11T06:38:28.286Z,22.32
2023-06-11T06:39:25.404Z,22.30
2023-06-11T06:40:22.510Z,22.29
2023-06-11T06:41:19.781Z,22.27
2023-06-11T06:42:16.723Z,22.24
2023-06-11T06:43:13.649Z,22.40
2023-06-11T06:44:10.665Z,22.16
2023-06-11T06:45:08.386Z,22.31
2023-06-11T06:46:05.551Z,22.53
2023-06-11T06:47:02.635Z,22.61
2023-06-11T06:47:59.616Z,22.49
2023-06-11T06:48:56.811Z,22.50
2023-06-11T06:49:53.846Z,22.52
2023-06-11T06:50:50.794Z,22.69
2023-06-11T06:51:47.920Z,22.81
2023-06-11T06:52:44.976Z,22.86
2023-06-11T06:53:42.034Z,22.79
2023-06-11T06:54:39.876Z,22.78
2023-06-11T06:55:36.809Z,22.92
2023-06-11T06:56:33.741Z,22.99
2023-06-11T06:57:31.762Z,23.03
2023-06-11T06:58:30.295Z,22.93
2023-06-11T06:59:27.264Z,22.70
2023-06-11T07:00:24.334Z,22.66
2023-06-11T07:01:21.435Z,22.48
2023-06-11T07:02:18.838Z,22.25
2023-06-11T07:03:16.352Z,22.49
2023-06-11T07:04:13.700Z,22.66
2023-06-11T07:05:11.556Z,22.54
2023-06-11T07:06:09.695Z,22.59
2023-06-11T07:07:06.911Z,22.63
2023-06-11T07:08:03.919Z,22.55
2023-06-11T07:09:00.886Z,22.44
2023-06-11T07:09:57.805Z,22.57
2023-06-11T07:10:56.649Z,22.54
2023-06-11T07:11:54.373Z,22.60
2023-06-11T07:12:51.399Z,22.65
2023-06-11T07:13:48.313Z,22.53
2023-06-11T07:14:45.221Z,22.66
2023-06-11T07:15:42.224Z,22.59
2023-06-11T07:16:39.688Z,22.73
2023-06-11T07:17:36.685Z,22.79
2023-06-11T07:18:34.251Z,22.67
2023-06-11T07:19:31.249Z,22.70
2023-06-11T07:20:28.343Z,22.80
2023-06-11T07:21:25.758Z,22.94
2023-06-11T07:22:22.809Z,23.13
2023-06-11T07:23:22.556Z,23.48
2023-06-11T07:24:19.875Z,23.58
2023-06-11T07:25:16.923Z,23.34
2023-06-11T07:26:15.402Z,23.38
2023-06-11T07:27:12.791Z,23.42
2023-06-11T07:28:09.771Z,23.31
2023-06-11T07:29:08.622Z,23.24
2023-06-11T07:30:08.347Z,23.20
2023-06-11T07:31:05.506Z,23.13
2023-06-11T07:32:02.522Z,23.17
2023-06-11T07:33:00.294Z,23.12
2023-06-11T07:33:57.321Z,23.23
2023-06-11T07:34:54.258Z,23.37
2023-06-11T07:35:51.215Z,23.38
2023-06-11T07:36:48.168Z,23.44
2023-06-11T07:37:46.780Z,23.41
2023-06-11T07:38:46.970Z,23.43
2023-06-11T07:39:44.617Z,23.33
2023-06-11T07:40:41.739Z,23.26
2023-06-11T07:41:38.774Z,23.32
2023-06-11T07:42:35.839Z,23.22
2023-06-11T07:43:32.858Z,23.21
2023-06-11T07:44:29.868Z,23.29
2023-06-11T07:45:26.806Z,23.32
2023-06-11T07:46:23.723Z,23.39
2023-06-11T07:47:21.053Z,23.48
2023-06-11T07:48:18.049Z,23.67
2023-06-11T07:49:15.066Z,23.65
2023-06-11T07:50:12.771Z,23.79
2023-06-11T07:51:09.950Z,23.96
2023-06-11T07:52:07.971Z,23.90
2023-06-11T07:53:05.356Z,23.94
2023-06-11T07:54:02.350Z,23.98
2023-06-11T07:54:59.433Z,24.12
2023-06-11T07:55:58.589Z,24.24
2023-06-11T07:56:57.162Z,24.11
2023-06-11T07:57:54.154Z,24.04
2023-06-11T07:58:52.070Z,23.73
2023-06-11T07:59:49.418Z,23.86
2023-06-11T08:00:46.377Z,24.03
2023-06-11T08:01:43.429Z,24.13
2023-06-11T08:02:43.679Z,24.43
2023-06-11T08:03:41.420Z,24.56
2023-06-11T08:04:39.169Z,24.83
2023-06-11T08:05:36.259Z,24.91
2023-06-11T08:06:34.599Z,24.71
2023-06-11T08:07:31.926Z,25.05
2023-06-11T08:08:28.810Z,25.02
2023-06-11T08:09:28.375Z,24.94
2023-06-11T08:10:27.255Z,25.15
2023-06-11T08:11:24.496Z,25.22
2023-06-11T08:12:21.647Z,25.04
2023-06-11T08:13:19.686Z,25.04
2023-06-11T08:14:20.232Z,24.97
2023-06-11T08:15:17.216Z,24.99
2023-06-11T08:16:14.561Z,24.99
2023-06-11T08:17:11.830Z,25.14
2023-06-11T08:18:09.356Z,24.97
2023-06-11T08:19:06.328Z,24.67
2023-06-11T08:20:07.434Z,24.78
2023-06-11T08:21:06.771Z,24.90
2023-06-11T08:22:03.849Z,24.83
2023-06-11T08:23:01.141Z,24.76
2023-06-11T08:23:58.915Z,24.83
2023-06-11T08:24:56.260Z,24.89
2023-06-11T08:25:53.190Z,24.89
2023-06-11T08:26:50.526Z,25.11
2023-06-11T08:27:47.962Z,25.06
2023-06-11T08:28:45.409Z,25.17
2023-06-11T08:29:43.217Z,25.12
2023-06-11T08:30:40.181Z,25.20
2023-06-11T08:31:37.147Z,25.05
2023-06-11T08:32:34.221Z,24.86
2023-06-11T08:33:31.553Z,24.92
2023-06-11T08:34:28.760Z,25.05
2023-06-11T08:35:27.514Z,25.08
2023-06-11T08:36:24.480Z,25.14
2023-06-11T08:37:21.473Z,25.17
2023-06-11T08:38:18.466Z,25.14
2023-06-11T08:39:15.475Z,24.94
2023-06-11T08:40:13.835Z,25.24
2023-06-11T08:41:11.248Z,25.41
2023-06-11T08:42:09.165Z,25.58
2023-06-11T08:43:06.138Z,25.79
2023-06-11T08:44:03.507Z,25.91
2023-06-11T08:45:00.421Z,25.84
2023-06-11T08:45:57.478Z,26.18
2023-06-11T08:46:56.452Z,26.15
2023-06-11T08:47:56.339Z,26.40
2023-06-11T08:49:02.319Z,26.57
2023-06-11T08:50:00.850Z,26.71
2023-06-11T08:51:03.428Z,26.69
2023-06-11T08:52:03.995Z,26.55
2023-06-11T08:53:03.288Z,26.30
2023-06-11T08:54:00.285Z,26.21
2023-06-11T08:54:57.345Z,26.18
2023-06-11T08:55:54.524Z,25.86
2023-06-11T08:56:51.584Z,25.57
2023-06-11T08:57:50.793Z,25.29
2023-06-11T08:58:48.825Z,25.36
2023-06-11T08:59:45.905Z,25.38
2023-06-11T09:00:44.118Z,25.31
2023-06-11T09:01:42.187Z,25.54
2023-06-11T09:02:39.727Z,25.30
2023-06-11T09:03:37.209Z,25.45
2023-06-11T09:04:34.562Z,25.31
2023-06-11T09:05:34.431Z,25.61
2023-06-11T09:06:31.399Z,25.72
2023-06-11T09:07:28.322Z,25.77
2023-06-11T09:08:25.370Z,25.65
2023-06-11T09:09:22.376Z,25.65
2023-06-11T09:10:20.136Z,25.47
2023-06-11T09:11:17.322Z,25.65
2023-06-11T09:12:14.989Z,25.51
2023-06-11T09:13:11.882Z,25.52
2023-06-11T09:14:08.871Z,25.21
2023-06-11T09:15:06.991Z,25.38
2023-06-11T09:16:04.220Z,25.53
2023-06-11T09:17:01.275Z,25.71
2023-06-11T09:17:58.387Z,25.52
2023-06-11T09:18:57.195Z,25.47
2023-06-11T09:19:55.161Z,25.36
2023-06-11T09:21:01.399Z,25.44
2023-06-11T09:21:58.427Z,25.25
2023-06-11T09:22:56.254Z,25.21
2023-06-11T09:23:53.517Z,25.10
2023-06-11T09:24:52.102Z,24.77
2023-06-11T09:25:49.125Z,24.53
2023-06-11T09:26:59.968Z,24.51
2023-06-11T09:27:56.925Z,24.68
2023-06-11T09:29:00.855Z,24.46
2023-06-11T09:29:58.124Z,24.30
2023-06-11T09:30:57.010Z,24.15
2023-06-11T09:32:09.957Z,24.16
2023-06-11T09:33:19.066Z,23.93
2023-06-11T09:34:23.582Z,24.09
2023-06-11T09:35:24.829Z,23.92
2023-06-11T09:36:23.680Z,23.88
2023-06-11T09:37:21.368Z,23.88
2023-06-11T09:38:20.570Z,24.27
2023-06-11T09:39:17.986Z,24.67
2023-06-11T09:40:19.666Z,24.91
2023-06-11T09:41:19.515Z,24.95
2023-06-11T09:42:25.628Z,25.08
2023-06-11T09:43:24.900Z,25.23
2023-06-11T09:44:22.892Z,25.52
2023-06-11T09:45:22.668Z,25.34
2023-06-11T09:46:20.827Z,25.24
2023-06-11T09:47:18.164Z,25.12
2023-06-11T09:48:15.227Z,24.84
2023-06-11T09:49:13.833Z,25.04
2023-06-11T09:50:13.225Z,25.33
2023-06-11T09:51:10.782Z,24.93
2023-06-11T09:52:08.266Z,24.78
2023-06-11T09:53:07.180Z,24.59
2023-06-11T09:54:05.048Z,24.40
2023-06-11T09:55:02.666Z,24.24
2023-06-11T09:56:10.249Z,24.49
2023-06-11T09:57:09.126Z,24.76
2023-06-11T09:58:07.635Z,24.59
2023-06-11T09:59:05.408Z,24.53
2023-06-11T10:00:02.903Z,24.40
2023-06-11T10:01:04.286Z,24.34
2023-06-11T10:02:04.025Z,24.42
2023-06-11T10:03:01.348Z,24.37
2023-06-11T10:03:59.810Z,24.48
2023-06-11T10:04:56.943Z,24.87
2023-06-11T10:05:54.477Z,25.12
2023-06-11T10:06:52.333Z,25.24
2023-06-11T10:08:17.518Z,25.38
2023-06-11T10:09:16.732Z,25.32
2023-06-11T10:10:17.340Z,25.50
2023-06-11T10:11:14.679Z,25.57
2023-06-11T10:12:14.043Z,25.29
2023-06-11T10:13:12.729Z,25.39
2023-06-11T10:14:14.031Z,25.30
2023-06-11T10:15:11.926Z,25.38
2023-06-11T10:16:10.023Z,25.57
2023-06-11T10:17:10.100Z,25.69
2023-06-11T10:18:14.372Z,25.71
2023-06-11T10:19:12.016Z,25.68
2023-06-11T10:20:26.280Z,25.70
2023-06-11T10:21:41.363Z,25.78
2023-06-11T10:22:38.365Z,25.58
2023-06-11T10:23:43.233Z,25.56
2023-06-11T10:24:40.273Z,25.74
2023-06-11T10:25:39.673Z,25.63
2023-06-11T10:26:37.321Z,25.65
2023-06-11T10:27:40.061Z,25.53
2023-06-11T10:28:38.061Z,25.63
2023-06-11T10:29:39.847Z,25.38
2023-06-11T10:30:36.849Z,25.87
2023-06-11T10:31:41.219Z,26.02
2023-06-11T10:32:50.194Z,25.66
2023-06-11T10:33:47.479Z,25.61
2023-06-11T10:34:46.036Z,25.84
2023-06-11T10:35:47.680Z,25.71
2023-06-11T10:36:44.768Z,26.02
2023-06-11T10:37:43.451Z,25.93
2023-06-11T10:38:40.479Z,25.83
2023-06-11T10:39:37.513Z,25.88
2023-06-11T10:40:36.717Z,25.99
2023-06-11T10:41:38.588Z,26.30
2023-06-11T10:42:40.355Z,26.20
2023-06-11T10:43:37.628Z,25.90
2023-06-11T10:44:42.356Z,26.14
2023-06-11T10:45:39.916Z,26.30
2023-06-11T10:46:55.576Z,26.06
2023-06-11T10:47:52.663Z,26.15
2023-06-11T10:48:54.283Z,26.00
2023-06-11T10:49:51.321Z,25.47
2023-06-11T10:50:48.303Z,25.49
2023-06-11T10:51:47.750Z,25.43
2023-06-11T10:53:13.373Z,25.74
2023-06-11T10:54:10.344Z,25.74
2023-06-11T10:55:10.846Z,25.79
2023-06-11T10:56:09.631Z,25.91
2023-06-11T10:57:07.441Z,26.03
2023-06-11T10:58:04.495Z,26.31
2023-06-11T10:59:01.511Z,26.60
2023-06-11T10:59:59.311Z,26.36
2023-06-11T11:00:56.672Z,26.06
2023-06-11T11:01:57.662Z,26.03
2023-06-11T11:02:56.303Z,26.16
2023-06-11T11:03:54.920Z,26.44
2023-06-11T11:04:53.256Z,26.74
2023-06-11T11:05:54.814Z,26.34
2023-06-11T11:06:56.715Z,26.24
2023-06-11T11:07:55.086Z,26.03
2023-06-11T11:08:53.368Z,25.89
2023-06-11T11:09:51.469Z,25.89
2023-06-11T11:11:02.630Z,26.06
2023-06-11T11:12:00.244Z,25.95
2023-06-11T11:12:57.400Z,25.96
2023-06-11T11:13:54.913Z,26.25
2023-06-11T11:14:52.194Z,26.28
2023-06-11T11:15:49.206Z,26.44
2023-06-11T11:16:49.571Z,26.49
2023-06-11T11:17:47.007Z,26.39
2023-06-11T11:18:44.131Z,26.46
2023-06-11T11:19:42.301Z,26.28
2023-06-11T11:20:39.302Z,26.31
2023-06-11T11:21:37.700Z,26.62
2023-06-11T11:22:35.109Z,26.52
2023-06-11T11:23:35.147Z,26.21
2023-06-11T11:24:38.978Z,25.86
2023-06-11T11:25:38.144Z,25.89
2023-06-11T11:26:45.569Z,26.01
2023-06-11T11:27:45.016Z,26.17
2023-06-11T11:28:42.384Z,26.34
2023-06-11T11:29:39.480Z,26.28
2023-06-11T11:30:36.391Z,26.31
2023-06-11T11:31:33.335Z,26.40
2023-06-11T11:32:32.565Z,26.14
2023-06-11T11:33:30.181Z,26.32
2023-06-11T11:34:29.222Z,26.23
2023-06-11T11:35:27.908Z,26.32
2023-06-11T11:36:24.860Z,26.19
2023-06-11T11:37:23.226Z,26.18
2023-06-11T11:38:20.280Z,26.16
2023-06-11T11:39:17.399Z,26.16
2023-06-11T11:40:14.927Z,26.36
2023-06-11T11:41:12.195Z,26.13
2023-06-11T11:42:12.801Z,25.72
2023-06-11T11:43:12.295Z,25.55
2023-06-11T11:44:09.213Z,25.39
2023-06-11T11:45:06.898Z,25.57
2023-06-11T11:46:03.961Z,25.86
2023-06-11T11:47:01.142Z,26.00
2023-06-11T11:48:58.781Z,26.00
2023-06-11T11:49:56.973Z,26.12
2023-06-11T11:51:07.307Z,26.32
2023-06-11T11:52:07.907Z,26.42
2023-06-11T11:53:06.156Z,26.38
2023-06-11T11:54:03.978Z,26.58
2023-06-11T11:55:01.132Z,26.37
2023-06-11T11:56:05.960Z,26.48
2023-06-11T11:57:04.886Z,26.56
2023-06-11T11:58:09.650Z,26.61
2023-06-11T11:59:17.073Z,26.56
2023-06-11T12:00:15.564Z,26.41
2023-06-11T12:01:23.974Z,26.45
2023-06-11T12:02:27.658Z,26.31
2023-06-11T12:03:25.308Z,26.25
2023-06-11T12:04:23.465Z,26.29
2023-06-11T12:05:20.562Z,26.26
2023-06-11T12:06:24.571Z,26.02
2023-06-11T12:07:23.094Z,25.94
2023-06-11T12:08:20.061Z,25.43
2023-06-11T12:09:17.125Z,25.06
2023-06-11T12:10:14.700Z,24.92
2023-06-11T12:11:11.858Z,24.89
2023-06-11T12:12:09.590Z,24.76
2023-06-11T12:13:08.403Z,24.67
2023-06-11T12:14:05.398Z,24.73
2023-06-11T12:15:02.418Z,24.18
2023-06-11T12:16:02.834Z,24.31
2023-06-11T12:17:01.594Z,24.18
2023-06-11T12:17:58.608Z,24.25
2023-06-11T12:19:06.831Z,24.28
2023-06-11T12:20:16.208Z,24.32
2023-06-11T12:21:13.654Z,24.44
2023-06-11T12:22:10.631Z,24.38
2023-06-11T12:23:07.742Z,24.31
2023-06-11T12:24:05.273Z,24.41
2023-06-11T12:25:02.287Z,24.19
2023-06-11T12:26:01.464Z,24.27
2023-06-11T12:26:58.608Z,24.28
2023-06-11T12:27:55.961Z,24.31
2023-06-11T12:28:52.908Z,24.26
2023-06-11T12:29:54.818Z,23.77
2023-06-11T12:30:51.857Z,23.63
2023-06-11T12:31:48.990Z,23.43
2023-06-11T12:32:46.912Z,23.45
2023-06-11T12:33:43.879Z,23.34
2023-06-11T12:34:40.856Z,23.42